Time;durP1;ratioP1;P1;durP2;ratioP2;P2;SDS_P1;SDS_P2;PMS_P1;PMS_P2;Temp;Humidity;BMP_temperature;BMP_pressure;BME280_temperature;BME280_humidity;BME280_pressure;Samples;Min_cycle;Max_cycle;Signal;HPM_P1;HPM_P2
2023/08/03 04:30:42;;;;;;;10.68;2.22;;;17.10;80.90;;;;;;5666600;23;20517;-77
2023/08/03 04:33:07;;;;;;;17.33;2.70;;;17.10;81.00;;;;;;4900388;29;20056;-76
2023/08/03 04:35:33;;;;;;;12.45;2.38;;;17.00;81.10;;;;;;4902079;29;20432;-76
2023/08/03 04:37:58;;;;;;;16.77;3.05;;;17.00;81.20;;;;;;4902069;29;20072;-76
2023/08/03 04:40:24;;;;;;;9.35;2.10;;;17.00;81.40;;;;;;4902019;29;20052;-77
2023/08/03 04:42:50;;;;;;;14.68;2.10;;;17.00;81.40;;;;;;4884996;29;20056;-77
2023/08/03 04:45:15;;;;;;;12.55;2.95;;;17.00;81.30;;;;;;4885011;29;20036;-76
2023/08/03 04:47:41;;;;;;;15.55;3.05;;;17.10;81.30;;;;;;4902087;29;20020;-76
2023/08/03 04:50:07;;;;;;;12.60;2.40;;;17.10;81.30;;;;;;4901870;29;20028;-76
2023/08/03 04:52:32;;;;;;;6.55;2.40;;;17.10;81.40;;;;;;4901819;29;20029;-76
2023/08/03 04:54:58;;;;;;;16.95;2.97;;;17.20;81.20;;;;;;4902040;29;20067;-76
2023/08/03 04:57:23;;;;;;;11.35;2.47;;;17.10;81.40;;;;;;4901891;29;20029;-76
2023/08/03 04:59:49;;;;;;;13.55;2.65;;;17.10;81.40;;;;;;4901748;29;20064;-76
2023/08/03 05:02:15;;;;;;;11.30;3.30;;;17.20;81.30;;;;;;4901968;29;20036;-76
2023/08/03 05:04:40;;;;;;;11.70;2.47;;;17.20;81.20;;;;;;4885246;29;20487;-76
2023/08/03 05:07:06;;;;;;;9.75;2.35;;;17.20;81.20;;;;;;4902090;29;20028;-76
2023/08/03 05:09:31;;;;;;;8.70;2.50;;;17.20;81.20;;;;;;4901999;29;20085;-76
2023/08/03 05:11:57;;;;;;;14.88;2.65;;;17.20;81.00;;;;;;4902115;29;20052;-76
2023/08/03 05:14:22;;;;;;;18.83;2.80;;;17.20;81.20;;;;;;4904338;29;20040;-76
2023/08/03 05:16:48;;;;;;;12.90;2.58;;;17.20;81.20;;;;;;4906122;29;20020;-77
2023/08/03 05:19:14;;;;;;;15.60;2.72;;;17.20;81.20;;;;;;4888834;29;20053;-76
2023/08/03 05:21:39;;;;;;;12.98;2.67;;;17.20;81.10;;;;;;4905676;29;20021;-76
2023/08/03 05:24:05;;;;;;;11.95;2.05;;;17.20;81.10;;;;;;4905130;29;20024;-76
2023/08/03 05:26:32;;;;;;;14.80;2.72;;;17.20;81.40;;;;;;4905765;29;20032;-76
2023/08/03 05:28:58;;;;;;;12.18;3.00;;;17.20;81.50;;;;;;4905464;29;20032;-76
2023/08/03 05:31:24;;;;;;;12.05;3.17;;;17.20;81.40;;;;;;4905437;29;20452;-76
2023/08/03 05:33:49;;;;;;;15.55;2.47;;;17.10;81.30;;;;;;4905510;29;20113;-76
2023/08/03 05:36:15;;;;;;;23.50;3.90;;;17.20;81.60;;;;;;4905439;29;20498;-76
2023/08/03 05:38:40;;;;;;;9.23;2.28;;;17.20;81.60;;;;;;4905295;29;20028;-76
2023/08/03 05:41:14;;;;;;;14.52;3.15;;;17.20;81.40;;;;;;4905615;29;20029;-76
2023/08/03 05:43:40;;;;;;;14.70;2.65;;;17.20;81.60;;;;;;4905491;29;20490;-76
2023/08/03 05:46:12;;;;;;;11.50;2.55;;;17.20;81.50;;;;;;4905361;29;20028;-76
2023/08/03 05:48:38;;;;;;;12.95;2.20;;;17.20;81.60;;;;;;4905207;29;20040;-77
2023/08/03 05:51:04;;;;;;;12.13;2.53;;;17.20;81.60;;;;;;4905412;29;20021;-76
2023/08/03 05:53:29;;;;;;;9.70;2.15;;;17.20;81.70;;;;;;4905172;29;20024;-76
2023/08/03 05:55:56;;;;;;;12.02;2.42;;;17.30;81.80;;;;;;4905068;29;20516;-76
2023/08/03 05:58:22;;;;;;;8.80;2.22;;;17.20;81.80;;;;;;4905069;29;20487;-77
2023/08/03 06:00:49;;;;;;;13.70;3.22;;;17.20;82.00;;;;;;4904874;29;20025;-76
2023/08/03 06:03:17;;;;;;;6.60;1.98;;;17.10;82.20;;;;;;4904925;29;20036;-76
2023/08/03 06:05:48;;;;;;;10.15;2.15;;;17.10;82.30;;;;;;4904850;29;20036;-76
2023/08/03 06:08:21;;;;;;;9.52;2.42;;;17.20;82.40;;;;;;4904600;29;20028;-77
2023/08/03 06:10:52;;;;;;;12.88;2.20;;;17.10;82.60;;;;;;4904924;29;20049;-76
2023/08/03 06:13:25;;;;;;;10.80;2.08;;;17.10;82.60;;;;;;4904985;29;20063;-76
2023/08/03 06:15:51;;;;;;;10.95;2.15;;;17.10;82.60;;;;;;4901866;29;20029;-76
2023/08/03 06:18:18;;;;;;;11.93;2.35;;;17.10;82.60;;;;;;4904721;29;20111;-76
2023/08/03 06:20:52;;;;;;;7.00;1.75;;;17.20;82.60;;;;;;4904181;29;20492;-76
2023/08/03 06:23:26;;;;;;;10.52;2.35;;;17.20;82.50;;;;;;4904692;29;20028;-76
2023/08/03 06:25:54;;;;;;;12.65;2.70;;;17.10;82.90;;;;;;4887365;29;20493;-76
2023/08/03 06:28:21;;;;;;;18.08;2.58;;;17.10;83.10;;;;;;4887422;29;20476;-76
2023/08/03 06:30:48;;;;;;;12.68;3.08;;;17.10;83.10;;;;;;4904435;29;20056;-76
2023/08/03 06:33:17;;;;;;;13.52;2.85;;;17.10;83.00;;;;;;4904314;29;20032;-77
2023/08/03 06:35:47;;;;;;;10.23;3.00;;;17.20;83.10;;;;;;4904346;29;20476;-76
2023/08/03 06:38:15;;;;;;;13.75;3.35;;;17.20;83.50;;;;;;4903466;29;20497;-76
2023/08/03 06:40:42;;;;;;;21.60;3.65;;;17.10;83.90;;;;;;4904555;29;20021;-76
2023/08/03 06:43:12;;;;;;;15.82;3.08;;;17.10;84.20;;;;;;4904416;29;20035;-76
2023/08/03 06:45:37;;;;;;;15.27;3.08;;;17.10;84.00;;;;;;4904057;29;20024;-76
2023/08/03 06:48:03;;;;;;;13.57;3.15;;;17.10;84.20;;;;;;4904303;29;20031;-76
2023/08/03 06:50:31;;;;;;;17.15;3.30;;;17.10;84.30;;;;;;4887392;29;20456;-76
2023/08/03 06:52:59;;;;;;;14.48;3.45;;;17.10;84.30;;;;;;4904226;29;20404;-76
2023/08/03 06:55:25;;;;;;;13.13;3.10;;;17.10;84.10;;;;;;4903831;29;20040;-76
2023/08/03 06:57:50;;;;;;;11.93;3.80;;;17.10;84.40;;;;;;4904225;29;20432;-78
2023/08/03 07:00:17;;;;;;;14.98;2.85;;;17.10;84.30;;;;;;4904441;29;20048;-76
2023/08/03 07:02:45;;;;;;;9.43;3.03;;;17.20;84.30;;;;;;4904034;29;20025;-76
2023/08/03 07:05:10;;;;;;;21.40;3.17;;;17.20;84.20;;;;;;4903705;29;20032;-76
2023/08/03 07:07:36;;;;;;;15.20;3.50;;;17.30;84.10;;;;;;4886809;29;20369;-76
2023/08/03 07:10:02;;;;;;;13.02;3.38;;;17.30;84.10;;;;;;4903706;29;20033;-76
2023/08/03 07:12:28;;;;;;;20.38;4.47;;;17.30;84.20;;;;;;4903827;29;20029;-76
2023/08/03 07:14:54;;;;;;;20.58;3.78;;;17.30;84.30;;;;;;4886723;29;20032;-76
2023/08/03 07:17:20;;;;;;;13.32;3.70;;;17.30;84.50;;;;;;4903893;29;20035;-76
2023/08/03 07:19:50;;;;;;;16.63;3.28;;;17.30;84.50;;;;;;4903681;29;20021;-76
2023/08/03 07:22:17;;;;;;;18.13;3.55;;;17.30;84.20;;;;;;4903350;29;20021;-76
2023/08/03 07:24:43;;;;;;;19.58;3.60;;;17.30;84.20;;;;;;4902958;29;20064;-76
2023/08/03 07:27:09;;;;;;;18.58;3.70;;;17.30;84.20;;;;;;4903589;29;20028;-76
2023/08/03 07:29:37;;;;;;;18.73;4.35;;;17.30;84.30;;;;;;4903526;29;20039;-76
2023/08/03 07:32:03;;;;;;;12.15;3.45;;;17.30;84.40;;;;;;4886351;29;20083;-76
2023/08/03 07:34:29;;;;;;;11.07;3.15;;;17.30;84.50;;;;;;4903211;29;20139;-76
2023/08/03 07:36:56;;;;;;;16.40;3.22;;;17.40;84.40;;;;;;4902638;29;20126;-76
2023/08/03 07:39:22;;;;;;;16.52;3.25;;;17.50;84.20;;;;;;4886526;29;20021;-76
2023/08/03 07:41:48;;;;;;;14.15;2.83;;;17.50;84.20;;;;;;4903143;29;20028;-76
2023/08/03 07:44:17;;;;;;;14.38;3.55;;;17.50;84.20;;;;;;4903063;29;20039;-76
2023/08/03 07:46:44;;;;;;;17.95;4.13;;;17.50;84.20;;;;;;4903261;29;20035;-76
2023/08/03 07:49:09;;;;;;;15.13;3.80;;;17.50;84.10;;;;;;4903278;29;20107;-77
2023/08/03 07:51:35;;;;;;;11.40;2.67;;;17.60;84.10;;;;;;4902828;29;20071;-76
2023/08/03 07:54:01;;;;;;;13.82;2.83;;;17.50;84.40;;;;;;4902860;29;20040;-76
2023/08/03 07:56:26;;;;;;;10.70;3.03;;;17.50;84.50;;;;;;4886196;29;20037;-76
2023/08/03 07:58:53;;;;;;;12.55;3.15;;;17.60;84.60;;;;;;4903043;29;20025;-76
2023/08/03 08:01:19;;;;;;;13.07;2.88;;;17.50;84.60;;;;;;4902559;29;20127;-76
2023/08/03 08:03:45;;;;;;;10.88;3.20;;;17.60;84.60;;;;;;4902907;29;20511;-76
2023/08/03 08:06:14;;;;;;;15.20;2.80;;;17.70;84.60;;;;;;4902806;29;20036;-76
2023/08/03 08:08:40;;;;;;;8.80;2.53;;;17.70;84.40;;;;;;4902560;29;20476;-76
2023/08/03 08:11:06;;;;;;;8.80;2.63;;;17.80;84.40;;;;;;4902817;29;20055;-76
2023/08/03 08:13:32;;;;;;;12.93;3.38;;;17.80;84.10;;;;;;4902737;29;20052;-76
2023/08/03 08:16:06;;;;;;;10.40;3.08;;;17.90;83.80;;;;;;4885836;29;20452;-76
2023/08/03 08:18:33;;;;;;;10.55;3.00;;;18.00;83.80;;;;;;4902704;29;20026;-76
2023/08/03 08:21:04;;;;;;;10.45;3.60;;;18.00;83.50;;;;;;4902789;29;20036;-76
2023/08/03 08:23:29;;;;;;;8.68;3.17;;;18.10;83.30;;;;;;4902471;29;20083;-76
2023/08/03 08:25:55;;;;;;;10.43;3.00;;;18.30;83.20;;;;;;4902635;29;20033;-76
2023/08/03 08:28:21;;;;;;;9.75;3.03;;;18.30;82.20;;;;;;4901824;29;20391;-76
2023/08/03 08:30:47;;;;;;;10.63;2.92;;;18.30;82.50;;;;;;4902389;29;20135;-76
2023/08/03 08:33:18;;;;;;;7.82;2.97;;;18.30;82.40;;;;;;4902397;29;20033;-76
2023/08/03 08:35:45;;;;;;;9.20;3.25;;;18.30;82.40;;;;;;4885623;29;20132;-77
2023/08/03 08:38:12;;;;;;;8.80;2.95;;;18.40;82.50;;;;;;4902262;29;20384;-77
2023/08/03 08:40:39;;;;;;;9.52;3.15;;;18.30;82.40;;;;;;4902473;29;20029;-76
2023/08/03 08:43:05;;;;;;;7.70;3.50;;;18.30;82.30;;;;;;4902395;29;20021;-76
2023/08/03 08:45:31;;;;;;;7.57;3.28;;;18.30;82.50;;;;;;4902533;29;20033;-76
2023/08/03 08:47:57;;;;;;;8.85;3.50;;;18.20;82.70;;;;;;4904292;29;20032;-76
2023/08/03 08:50:23;;;;;;;9.45;3.83;;;18.20;82.50;;;;;;4889356;29;20128;-76
2023/08/03 08:52:50;;;;;;;8.43;3.65;;;18.20;82.60;;;;;;4906149;29;20029;-76
2023/08/03 08:55:20;;;;;;;10.80;3.95;;;18.20;82.60;;;;;;4906191;29;20101;-76
2023/08/03 08:57:46;;;;;;;11.68;4.03;;;18.20;82.50;;;;;;4889168;29;20028;-76
2023/08/03 09:00:13;;;;;;;8.07;3.63;;;18.20;82.70;;;;;;4889005;29;20502;-76
2023/08/03 09:02:39;;;;;;;11.68;4.15;;;18.30;82.60;;;;;;4888925;29;20025;-76
2023/08/03 09:05:13;;;;;;;10.15;3.65;;;18.30;82.60;;;;;;4906044;29;20029;-76
2023/08/03 09:07:38;;;;;;;9.80;3.65;;;18.30;82.40;;;;;;4889077;29;20028;-76
2023/08/03 09:10:04;;;;;;;8.80;3.65;;;18.30;82.50;;;;;;4905766;29;20127;-76
2023/08/03 09:12:30;;;;;;;12.45;4.25;;;18.40;82.10;;;;;;4906310;29;20144;-76
2023/08/03 09:14:57;;;;;;;10.23;3.75;;;18.40;82.30;;;;;;4905767;29;20056;-76
2023/08/03 09:17:23;;;;;;;10.65;3.80;;;18.40;81.70;;;;;;4888900;29;20029;-76
2023/08/03 09:19:49;;;;;;;9.15;3.75;;;18.40;82.10;;;;;;4905923;29;20029;-76
2023/08/03 09:22:19;;;;;;;11.02;3.75;;;18.60;82.00;;;;;;4905627;29;20029;-77
2023/08/03 09:24:47;;;;;;;11.63;4.22;;;18.60;81.70;;;;;;4905273;29;20441;-76
2023/08/03 09:27:17;;;;;;;8.88;4.57;;;18.70;81.70;;;;;;4905890;29;20032;-76
2023/08/03 09:29:43;;;;;;;17.23;4.57;;;18.80;81.50;;;;;;4888979;29;20028;-76
2023/08/03 09:32:09;;;;;;;13.10;4.20;;;18.90;81.20;;;;;;4905343;29;20380;-76
2023/08/03 09:34:44;;;;;;;9.45;4.25;;;19.00;80.70;;;;;;4905459;29;20039;-76
2023/08/03 09:37:11;;;;;;;13.75;4.47;;;18.90;80.80;;;;;;4905369;29;20103;-76
2023/08/03 09:39:38;;;;;;;15.75;4.20;;;19.00;80.90;;;;;;4905394;29;20021;-76
2023/08/03 09:42:10;;;;;;;12.15;3.95;;;18.90;80.70;;;;;;4905460;29;20051;-76
2023/08/03 09:44:38;;;;;;;13.20;4.63;;;18.90;80.80;;;;;;4905383;29;20032;-76
2023/08/03 09:47:04;;;;;;;11.60;4.90;;;18.80;81.00;;;;;;4905333;29;20029;-76
2023/08/03 09:49:31;;;;;;;11.00;4.60;;;18.80;81.00;;;;;;4905312;29;20460;-76
2023/08/03 09:51:58;;;;;;;12.25;5.20;;;18.80;81.70;;;;;;4905158;29;20028;-76
2023/08/03 09:54:45;;;;;;;15.70;5.32;;;18.80;82.10;;;;;;4905009;29;20084;-76
2023/08/03 09:57:13;;;;;;;15.30;6.22;;;18.70;82.50;;;;;;4905433;29;20052;-76
2023/08/03 09:59:43;;;;;;;11.70;3.97;;;18.40;83.70;;;;;;4904333;29;20024;-76
2023/08/03 10:02:10;;;;;;;10.82;4.20;;;18.30;85.60;;;;;;4905004;29;20025;-76
2023/08/03 10:04:42;;;;;;;17.95;4.85;;;18.00;86.40;;;;;;4904960;29;20498;-76
2023/08/03 10:07:10;;;;;;;14.48;4.05;;;18.00;86.90;;;;;;4905044;29;20489;-76
2023/08/03 10:09:57;;;;;;;14.02;3.97;;;17.90;86.40;;;;;;4904844;29;20032;-76
2023/08/03 10:12:34;;;;;;;10.98;3.45;;;17.70;86.00;;;;;;4905029;29;20043;-76
2023/08/03 10:15:02;;;;;;;10.75;2.90;;;17.60;86.70;;;;;;4887599;29;20076;-76
2023/08/03 10:17:28;;;;;;;16.20;3.65;;;17.60;86.80;;;;;;4897156;29;20033;-76
2023/08/03 10:19:54;;;;;;;12.05;3.83;;;17.60;86.40;;;;;;4901683;29;20059;-76
2023/08/03 10:22:20;;;;;;;6.30;3.05;;;17.60;86.50;;;;;;4904556;29;20027;-76
2023/08/03 10:25:24;;;;;;;9.93;3.28;;;17.60;86.20;;;;;;4904588;29;20029;-76
2023/08/03 10:28:12;;;;;;;17.02;4.00;;;17.70;86.90;;;;;;4865527;29;20033;-76
2023/08/03 10:31:16;;;;;;;11.93;3.25;;;17.60;86.60;;;;;;4865053;29;20140;-76
2023/08/03 10:33:50;;;;;;;15.75;4.25;;;17.60;86.50;;;;;;4878189;29;20084;-76
2023/08/03 10:36:27;;;;;;;15.88;4.78;;;17.70;86.20;;;;;;4893488;29;20040;-76
2023/08/03 10:39:04;;;;;;;23.30;5.25;;;17.80;86.30;;;;;;4904493;29;20021;-76
2023/08/03 10:41:41;;;;;;;18.67;4.88;;;18.00;86.10;;;;;;4904535;29;20048;-76
2023/08/03 10:44:09;;;;;;;14.13;4.82;;;18.20;85.90;;;;;;4904199;29;20025;-76
2023/08/03 10:46:42;;;;;;;15.30;5.22;;;18.30;85.40;;;;;;4904315;29;20032;-78
2023/08/03 10:49:20;;;;;;;15.70;5.85;;;18.40;85.50;;;;;;4904266;29;20388;-76
2023/08/03 10:51:49;;;;;;;22.02;6.63;;;18.40;85.30;;;;;;4904116;29;20468;-76
2023/08/03 10:54:16;;;;;;;16.48;7.03;;;18.40;85.10;;;;;;4904108;29;20024;-76
2023/08/03 10:57:11;;;;;;;19.73;6.93;;;18.50;85.20;;;;;;4904137;29;20432;-76
2023/08/03 10:59:42;;;;;;;18.17;6.03;;;18.50;84.80;;;;;;4904039;29;20410;-76
2023/08/03 11:02:32;;;;;;;17.75;6.68;;;18.50;84.90;;;;;;4903914;29;20021;-76
2023/08/03 11:05:05;;;;;;;20.85;6.57;;;18.60;85.10;;;;;;4903954;29;20387;-76
2023/08/03 11:07:37;;;;;;;16.52;6.28;;;18.70;84.90;;;;;;4903909;29;20029;-76
2023/08/03 11:10:04;;;;;;;20.92;8.00;;;18.90;85.00;;;;;;4903721;29;20025;-76
2023/08/03 11:12:31;;;;;;;19.67;6.85;;;19.10;84.50;;;;;;4902887;29;20059;-76
2023/08/03 11:14:59;;;;;;;20.92;7.28;;;19.30;84.40;;;;;;4903659;29;20103;-76
2023/08/03 11:17:29;;;;;;;22.98;6.43;;;19.50;83.80;;;;;;4903825;29;20029;-76
2023/08/03 11:19:56;;;;;;;21.63;6.63;;;19.50;83.70;;;;;;4903573;29;20479;-76
2023/08/03 11:22:23;;;;;;;25.50;6.45;;;19.50;83.70;;;;;;4903813;29;20056;-76
2023/08/03 11:24:55;;;;;;;16.35;5.65;;;19.50;83.30;;;;;;4903060;29;20092;-76
2023/08/03 11:27:22;;;;;;;18.38;5.60;;;19.40;83.00;;;;;;4903585;29;20037;-76
2023/08/03 11:29:48;;;;;;;19.80;6.65;;;19.30;83.00;;;;;;4903516;29;20080;-76
2023/08/03 11:32:28;;;;;;;14.57;5.90;;;19.30;83.30;;;;;;4903092;29;20139;-77
2023/08/03 11:35:12;;;;;;;17.38;5.47;;;19.40;83.30;;;;;;4903281;29;20035;-76
2023/08/03 11:37:38;;;;;;;14.57;5.25;;;19.70;83.10;;;;;;4903224;29;20518;-76
2023/08/03 11:40:05;;;;;;;17.40;5.60;;;19.70;82.70;;;;;;4903254;29;20020;-76
2023/08/03 11:42:35;;;;;;;21.90;6.57;;;19.50;82.40;;;;;;4903621;29;20566;-76
2023/08/03 11:45:01;;;;;;;20.83;6.57;;;19.40;82.90;;;;;;4903139;29;20399;-76
2023/08/03 11:47:46;;;;;;;18.63;6.65;;;19.50;83.00;;;;;;4903259;29;20033;-76
2023/08/03 11:50:14;;;;;;;24.95;6.95;;;19.50;82.80;;;;;;4903065;29;20084;-76
2023/08/03 11:52:39;;;;;;;21.88;7.10;;;19.50;82.90;;;;;;4902997;29;20033;-76
2023/08/03 11:55:05;;;;;;;25.13;8.00;;;19.50;82.80;;;;;;4902889;29;20088;-76
2023/08/03 12:00:15;;;;;;;18.48;6.93;;;19.80;83.00;;;;;;4902811;29;20035;-76
2023/08/03 12:02:43;;;;;;;19.55;7.07;;;19.90;82.20;;;;;;4885966;29;20396;-76
2023/08/03 12:05:09;;;;;;;28.65;7.60;;;19.90;82.40;;;;;;4885861;29;20116;-76
2023/08/03 12:07:35;;;;;;;18.45;7.15;;;19.80;82.70;;;;;;4902854;29;20068;-76
2023/08/03 12:10:08;;;;;;;19.65;7.35;;;19.70;82.20;;;;;;4902597;29;20028;-76
2023/08/03 12:12:33;;;;;;;25.08;7.07;;;19.60;82.70;;;;;;4903125;29;20088;-76
2023/08/03 12:14:59;;;;;;;30.25;8.27;;;19.70;82.80;;;;;;4902591;29;20032;-76
2023/08/03 12:17:24;;;;;;;26.63;7.40;;;19.80;82.80;;;;;;4902841;29;20024;-76
2023/08/03 12:19:50;;;;;;;21.38;7.15;;;19.90;82.70;;;;;;4902696;29;20095;-76
2023/08/03 12:22:16;;;;;;;23.17;8.15;;;19.90;82.40;;;;;;4902051;29;20037;-76
2023/08/03 12:24:41;;;;;;;25.52;7.93;;;20.00;82.70;;;;;;4902597;29;20036;-76
2023/08/03 12:27:07;;;;;;;23.30;6.90;;;19.90;82.60;;;;;;4902635;29;20025;-76
2023/08/03 12:29:33;;;;;;;27.13;7.43;;;19.80;82.70;;;;;;4901122;29;20444;-76
2023/08/03 12:31:58;;;;;;;24.67;7.25;;;19.80;82.80;;;;;;4902246;29;20523;-76
2023/08/03 12:34:25;;;;;;;20.00;7.82;;;19.80;82.40;;;;;;4902413;29;20028;-76
2023/08/03 12:36:51;;;;;;;20.13;7.55;;;19.60;82.70;;;;;;4902289;29;20566;-76
2023/08/03 12:39:17;;;;;;;24.10;7.50;;;19.50;83.00;;;;;;4902517;29;20029;-76
2023/08/03 12:41:44;;;;;;;38.35;8.20;;;19.40;83.60;;;;;;4902469;29;20028;-76
2023/08/03 12:44:10;;;;;;;27.00;6.65;;;19.30;83.80;;;;;;4902368;29;20021;-76
2023/08/03 12:46:36;;;;;;;18.00;6.35;;;19.20;84.10;;;;;;4901833;29;20104;-76
2023/08/03 12:49:01;;;;;;;18.05;6.65;;;19.20;84.00;;;;;;4902361;29;20435;-76
2023/08/03 12:51:27;;;;;;;19.35;6.40;;;19.20;84.00;;;;;;4902364;29;20123;-76
2023/08/03 12:53:53;;;;;;;20.45;6.60;;;19.30;83.90;;;;;;4902349;29;20032;-76
2023/08/03 12:56:18;;;;;;;19.38;7.05;;;19.40;83.80;;;;;;4885434;29;20032;-76
2023/08/03 12:58:44;;;;;;;23.85;8.13;;;19.60;83.70;;;;;;4902290;29;20013;-76
2023/08/03 13:01:10;;;;;;;26.75;7.63;;;19.80;83.50;;;;;;4902025;29;20029;-76
2023/08/03 13:03:37;;;;;;;21.75;8.23;;;19.90;83.10;;;;;;4902381;29;20029;-76
2023/08/03 13:06:03;;;;;;;29.80;7.63;;;20.20;83.00;;;;;;4902202;29;20035;-76
2023/08/03 13:08:29;;;;;;;25.55;8.00;;;20.50;82.50;;;;;;4902004;29;20484;-76
2023/08/03 13:10:54;;;;;;;30.88;8.77;;;20.70;81.90;;;;;;4885232;29;20035;-76
2023/08/03 13:13:20;;;;;;;28.92;7.43;;;20.80;81.40;;;;;;4902172;29;20104;-76
2023/08/03 13:15:47;;;;;;;36.03;7.80;;;21.00;80.60;;;;;;4885070;29;20036;-76
2023/08/03 13:18:13;;;;;;;26.30;7.70;;;20.90;81.30;;;;;;4902275;29;20503;-76
2023/08/03 13:20:39;;;;;;;31.42;8.13;;;20.80;81.00;;;;;;4901715;29;20025;-76
2023/08/03 13:23:06;;;;;;;26.05;8.10;;;21.00;80.80;;;;;;4901715;29;20028;-76
2023/08/03 13:25:31;;;;;;;22.90;6.95;;;21.20;80.90;;;;;;4901940;29;20029;-76
2023/08/03 13:27:58;;;;;;;23.27;7.45;;;21.30;80.40;;;;;;4885124;29;20039;-76
2023/08/03 13:30:23;;;;;;;17.75;6.60;;;21.50;79.50;;;;;;4901794;29;20032;-76
2023/08/03 13:32:49;;;;;;;21.25;7.70;;;21.50;79.50;;;;;;4901875;29;20510;-76
2023/08/03 13:35:15;;;;;;;20.17;7.47;;;21.70;79.40;;;;;;4886897;29;20032;-76
2023/08/03 13:37:40;;;;;;;23.42;6.45;;;21.70;78.90;;;;;;4888664;29;20029;-76
2023/08/03 13:40:08;;;;;;;22.67;7.03;;;21.70;78.30;;;;;;4905463;29;20033;-76
2023/08/03 13:42:34;;;;;;;23.50;6.38;;;21.50;77.40;;;;;;4888523;29;20035;-76
2023/08/03 13:44:59;;;;;;;20.05;7.18;;;21.60;78.50;;;;;;4905318;29;20404;-76
2023/08/03 13:47:25;;;;;;;19.85;6.07;;;21.60;77.90;;;;;;4905450;29;20039;-76
2023/08/03 13:49:52;;;;;;;18.52;6.65;;;21.80;77.80;;;;;;4888397;29;20029;-77
2023/08/03 13:52:17;;;;;;;19.75;6.65;;;21.80;77.40;;;;;;4905257;29;20111;-77
2023/08/03 13:54:43;;;;;;;21.58;7.28;;;21.90;77.30;;;;;;4905045;29;20100;-77
2023/08/03 13:57:09;;;;;;;22.25;6.75;;;21.80;76.30;;;;;;4905238;29;20052;-77
2023/08/03 13:59:35;;;;;;;20.95;6.18;;;21.80;76.70;;;;;;4887992;29;20029;-76
2023/08/03 14:02:00;;;;;;;22.23;5.97;;;21.80;75.30;;;;;;4905003;29;20036;-76
2023/08/03 14:04:31;;;;;;;17.10;5.97;;;21.70;74.90;;;;;;4905004;29;20021;-76
2023/08/03 14:06:58;;;;;;;21.83;6.55;;;21.70;75.40;;;;;;4904965;29;20024;-76
2023/08/03 14:09:23;;;;;;;22.58;6.60;;;21.80;75.70;;;;;;4904883;29;20028;-76
2023/08/03 14:11:50;;;;;;;17.38;6.82;;;21.80;75.60;;;;;;4905016;29;20028;-76
2023/08/03 14:14:16;;;;;;;22.40;6.40;;;21.80;75.20;;;;;;4904784;29;20060;-76
2023/08/03 14:16:47;;;;;;;22.63;6.18;;;21.80;75.10;;;;;;4904881;29;20032;-76
2023/08/03 14:19:17;;;;;;;22.20;6.30;;;21.80;75.00;;;;;;4904835;29;20056;-76
2023/08/03 14:21:44;;;;;;;18.92;5.93;;;21.80;74.80;;;;;;4904730;29;20056;-76
2023/08/03 14:24:10;;;;;;;20.90;6.05;;;21.80;73.60;;;;;;4904630;29;20021;-76
2023/08/03 14:26:35;;;;;;;24.35;6.70;;;21.80;74.20;;;;;;4887797;29;20028;-76
2023/08/03 14:29:02;;;;;;;22.00;6.15;;;21.80;74.00;;;;;;4904741;29;20108;-76
2023/08/03 14:31:28;;;;;;;20.08;6.30;;;21.80;73.90;;;;;;4904200;29;20057;-76
2023/08/03 14:33:53;;;;;;;19.75;5.63;;;21.70;74.00;;;;;;4887615;29;20029;-76
2023/08/03 14:36:19;;;;;;;19.98;5.80;;;21.60;74.40;;;;;;4904362;29;20035;-76
2023/08/03 14:38:44;;;;;;;16.23;5.05;;;21.40;74.00;;;;;;4904435;29;20480;-77
2023/08/03 14:41:18;;;;;;;21.70;6.03;;;21.30;74.20;;;;;;4904424;29;20021;-76
2023/08/03 14:43:44;;;;;;;16.60;5.50;;;21.30;74.20;;;;;;4904498;29;20056;-76
2023/08/03 14:46:14;;;;;;;16.13;5.22;;;21.40;74.30;;;;;;4904195;29;20064;-76
2023/08/03 14:48:39;;;;;;;13.15;5.75;;;21.30;73.60;;;;;;4903731;29;20504;-76
2023/08/03 14:51:05;;;;;;;16.58;5.50;;;21.30;73.90;;;;;;4903926;29;20029;-76
2023/08/03 14:53:31;;;;;;;17.88;5.50;;;21.10;73.10;;;;;;4904338;29;20451;-77
2023/08/03 14:56:04;;;;;;;15.52;6.30;;;21.00;74.60;;;;;;4904369;29;20487;-77
2023/08/03 14:58:29;;;;;;;;;;;20.80;74.60;;;;;;4904622;29;20424;-76
2023/08/03 15:00:55;;;;;;;19.77;5.72;;;20.80;74.50;;;;;;4903835;29;19911;-76
2023/08/03 15:03:21;;;;;;;17.98;5.63;;;20.80;74.80;;;;;;4887084;29;20016;-76
2023/08/03 15:05:47;;;;;;;22.55;5.80;;;20.90;75.20;;;;;;4903996;29;20020;-76
2023/08/03 15:08:15;;;;;;;18.60;6.10;;;21.20;75.50;;;;;;4903783;29;20368;-76
2023/08/03 15:10:41;;;;;;;16.20;5.72;;;21.20;75.20;;;;;;4903722;29;20029;-77
2023/08/03 15:13:06;;;;;;;12.82;5.57;;;21.20;75.50;;;;;;4903283;29;20048;-76
2023/08/03 15:15:32;;;;;;;15.43;5.53;;;21.20;74.30;;;;;;4903685;29;20168;-76
2023/08/03 15:17:57;;;;;;;22.83;5.85;;;21.10;74.10;;;;;;4903798;29;20155;-76
2023/08/03 15:20:23;;;;;;;14.52;5.40;;;21.10;73.70;;;;;;4903613;29;20028;-77
2023/08/03 15:22:50;;;;;;;19.27;5.05;;;21.00;74.30;;;;;;4903596;29;20032;-77
2023/08/03 15:25:15;;;;;;;17.40;4.95;;;20.90;74.60;;;;;;4886621;29;20088;-76
2023/08/03 15:27:41;;;;;;;18.75;5.80;;;20.80;73.60;;;;;;4886705;29;20033;-77
2023/08/03 15:30:07;;;;;;;14.85;5.43;;;20.80;73.10;;;;;;4903355;29;20024;-77
2023/08/03 15:32:33;;;;;;;15.77;5.40;;;20.80;72.80;;;;;;4903374;29;20124;-76
2023/08/03 15:35:00;;;;;;;19.13;6.25;;;20.80;74.00;;;;;;4903326;29;20480;-77
2023/08/03 15:37:26;;;;;;;21.15;7.43;;;20.90;74.60;;;;;;4903339;29;20024;-77
2023/08/03 15:39:52;;;;;;;17.73;6.70;;;20.90;73.50;;;;;;4903309;29;20523;-77
2023/08/03 15:42:17;;;;;;;18.25;6.22;;;20.90;74.50;;;;;;4903332;29;20051;-77
2023/08/03 15:44:43;;;;;;;28.27;7.63;;;21.00;74.00;;;;;;4903205;29;20103;-77
2023/08/03 15:47:09;;;;;;;17.98;5.93;;;21.10;74.30;;;;;;4903069;29;20055;-77
2023/08/03 15:49:34;;;;;;;18.33;6.25;;;21.10;73.60;;;;;;4903117;29;20112;-77
2023/08/03 15:52:00;;;;;;;18.30;6.10;;;21.10;73.60;;;;;;4903079;29;20032;-77
2023/08/03 15:54:25;;;;;;;16.58;5.65;;;21.10;74.10;;;;;;4903008;29;20029;-77
2023/08/03 15:56:51;;;;;;;19.20;5.60;;;21.10;73.80;;;;;;4902604;29;20029;-77
2023/08/03 15:59:17;;;;;;;19.45;5.63;;;21.10;73.80;;;;;;4885964;29;20024;-76
2023/08/03 16:01:42;;;;;;;17.17;6.80;;;21.00;73.50;;;;;;4901645;29;20399;-76
2023/08/03 16:04:08;;;;;;;17.17;5.43;;;20.90;73.60;;;;;;4892852;29;20068;-77
2023/08/03 16:06:34;;;;;;;22.23;6.40;;;20.90;73.80;;;;;;4902796;29;20075;-77
2023/08/03 16:08:59;;;;;;;20.83;6.82;;;20.90;74.30;;;;;;4902693;29;20111;-77
2023/08/03 16:11:25;;;;;;;25.95;6.25;;;20.90;74.20;;;;;;4902800;29;20033;-77
2023/08/03 16:13:51;;;;;;;9.15;5.50;;;20.80;73.70;;;;;;4902848;29;20028;-76
2023/08/03 16:16:17;;;;;;;17.55;5.30;;;20.80;74.20;;;;;;4902533;29;20039;-77
2023/08/03 16:18:42;;;;;;;14.43;5.53;;;20.70;73.50;;;;;;4885641;29;20024;-77
2023/08/03 16:21:08;;;;;;;12.93;5.90;;;20.70;73.30;;;;;;4885920;29;20024;-76
2023/08/03 16:23:35;;;;;;;14.85;5.78;;;20.70;73.30;;;;;;4902522;29;20060;-76
2023/08/03 16:26:09;;;;;;;19.15;6.00;;;20.60;73.00;;;;;;4902438;29;20032;-77
2023/08/03 16:28:36;;;;;;;17.58;5.70;;;20.60;73.80;;;;;;4902365;29;20523;-77
2023/08/03 16:31:02;;;;;;;16.05;5.25;;;20.60;73.40;;;;;;4885375;29;20583;-77
2023/08/03 16:33:28;;;;;;;18.55;6.57;;;20.50;73.50;;;;;;4902257;29;20039;-76
2023/08/03 16:35:54;;;;;;;18.42;5.70;;;20.40;73.60;;;;;;4902453;29;20033;-77
2023/08/03 16:38:19;;;;;;;20.60;6.05;;;20.40;73.90;;;;;;4902156;29;20745;-77
2023/08/03 16:40:45;;;;;;;20.02;6.20;;;20.30;73.60;;;;;;4891726;29;20035;-77
2023/08/03 16:43:10;;;;;;;17.42;5.55;;;20.30;74.30;;;;;;4902593;29;20056;-77
2023/08/03 16:45:36;;;;;;;17.23;5.38;;;20.30;73.70;;;;;;4902245;29;20024;-76
2023/08/03 16:48:02;;;;;;;15.10;6.13;;;20.20;73.80;;;;;;4902650;29;20028;-77
2023/08/03 16:50:27;;;;;;;16.65;6.03;;;20.10;74.10;;;;;;4902364;29;20033;-77
2023/08/03 16:52:53;;;;;;;14.20;5.10;;;20.20;74.60;;;;;;4902255;29;20056;-76
2023/08/03 16:55:18;;;;;;;16.95;5.70;;;20.10;74.40;;;;;;4900954;29;20123;-76
2023/08/03 16:57:44;;;;;;;18.42;5.70;;;20.10;74.40;;;;;;4901907;29;20032;-76
2023/08/03 17:00:14;;;;;;;21.70;5.75;;;20.00;74.20;;;;;;4901989;29;20024;-76
2023/08/03 17:02:40;;;;;;;20.17;5.50;;;20.00;74.40;;;;;;4885238;29;20044;-76
2023/08/03 17:05:07;;;;;;;14.98;5.68;;;20.00;74.90;;;;;;4902089;29;20101;-76
2023/08/03 17:07:32;;;;;;;16.65;5.78;;;20.00;74.40;;;;;;4902238;29;20032;-77
2023/08/03 17:09:58;;;;;;;18.10;5.65;;;20.00;74.00;;;;;;4903799;29;20029;-76
2023/08/03 17:12:24;;;;;;;16.60;6.32;;;20.00;74.20;;;;;;4905989;29;20029;-77